createdAt,value
2019-05-05T00:05:11.321Z,100653
2019-05-05T00:10:34.737Z,100657
2019-05-05T00:15:56.659Z,100662
2019-05-05T00:21:20.078Z,100663
2019-05-05T00:26:42.813Z,100672
2019-05-05T00:32:05.427Z,100666
2019-05-05T00:37:28.089Z,100668
2019-05-05T00:42:54.518Z,100675
2019-05-05T00:48:16.195Z,100677
2019-05-05T00:53:38.918Z,100682
2019-05-05T00:59:04.403Z,100682
2019-05-05T01:04:25.280Z,100684
2019-05-05T01:09:47.915Z,100685
2019-05-05T01:15:11.635Z,100681
2019-05-05T01:20:34.431Z,100689
2019-05-05T01:25:56.927Z,100694
2019-05-05T01:31:19.576Z,100694
2019-05-05T01:36:45.105Z,100691
2019-05-05T01:42:06.484Z,100694
2019-05-05T01:47:29.147Z,100702
2019-05-05T01:52:51.822Z,100702
2019-05-05T01:58:15.246Z,100706
2019-05-05T02:03:38.075Z,100706
2019-05-05T02:09:01.768Z,100709
2019-05-05T02:14:24.866Z,100704
2019-05-05T02:19:48.698Z,100699
2019-05-05T02:25:14.459Z,100698
2019-05-05T02:30:35.885Z,100704
2019-05-05T02:35:57.649Z,100700
2019-05-05T02:41:21.815Z,100707
2019-05-05T02:46:44.748Z,100712
2019-05-05T02:52:07.102Z,100717
2019-05-05T02:57:29.743Z,100720
2019-05-05T03:02:53.849Z,100725
2019-05-05T03:08:16.056Z,100731
2019-05-05T03:13:38.703Z,100732
2019-05-05T03:19:03.517Z,100732
2019-05-05T03:24:25.046Z,100737
2019-05-05T03:29:48.326Z,100735
2019-05-05T03:35:13.529Z,100735
2019-05-05T03:40:34.580Z,100735
2019-05-05T03:45:57.225Z,100736
2019-05-05T03:51:21.153Z,100734
2019-05-05T03:56:44.125Z,100743
2019-05-05T04:02:05.234Z,100750
2019-05-05T04:07:27.974Z,100754
2019-05-05T04:12:52.149Z,100756
2019-05-05T04:18:14.619Z,100746
2019-05-05T04:23:37.015Z,100754
2019-05-05T04:29:02.325Z,100753
2019-05-05T04:34:24.070Z,100757
2019-05-05T04:39:46.395Z,100768
2019-05-05T04:45:09.895Z,100765
2019-05-05T04:50:34.369Z,100767
2019-05-05T04:55:55.249Z,100778
2019-05-05T05:01:20.534Z,100786
2019-05-05T05:06:43.647Z,100794
2019-05-05T05:12:05.833Z,100794
2019-05-05T05:17:28.459Z,100797
2019-05-05T05:22:54.241Z,100793
2019-05-05T05:28:14.806Z,100810
2019-05-05T05:33:37.515Z,100821
2019-05-05T05:39:01.169Z,100817
2019-05-05T05:44:25.384Z,100819
2019-05-05T05:49:46.633Z,100825
2019-05-05T05:55:09.378Z,100844
2019-05-05T06:00:34.310Z,100844
2019-05-05T06:05:56.710Z,100844
2019-05-05T06:11:20.143Z,100849
2019-05-05T06:16:44.607Z,100851
2019-05-05T06:22:07.227Z,100871
2019-05-05T06:27:29.950Z,100871
2019-05-05T06:32:54.353Z,100874
2019-05-05T06:38:15.439Z,100880
2019-05-05T06:43:38.060Z,100882
2019-05-05T06:49:00.760Z,100884
2019-05-05T06:54:24.120Z,100889
2019-05-05T06:59:46.133Z,100884
2019-05-05T07:05:08.884Z,100890
2019-05-05T07:10:33.844Z,100888
2019-05-05T07:15:55.230Z,100893
2019-05-05T07:21:17.895Z,100898
2019-05-05T07:26:41.588Z,100901
2019-05-05T07:32:04.356Z,100904
2019-05-05T07:37:28.505Z,100906
2019-05-05T07:42:53.995Z,100910
2019-05-05T07:48:16.421Z,100901
2019-05-05T07:53:39.926Z,100912
2019-05-05T07:59:03.922Z,100916
2019-05-05T08:04:26.225Z,100913
2019-05-05T08:09:48.924Z,100908
2019-05-05T08:15:11.578Z,100907
2019-05-05T08:20:34.321Z,100909
2019-05-05T08:25:57.138Z,100905
2019-05-05T08:31:19.795Z,100914
2019-05-05T08:36:44.595Z,100912
2019-05-05T08:42:06.635Z,100903
2019-05-05T08:47:29.364Z,100902
2019-05-05T08:52:53.700Z,100900
2019-05-05T08:58:15.626Z,100901
2019-05-05T09:03:38.322Z,100901
2019-05-05T09:09:03.838Z,100903
2019-05-05T09:14:24.634Z,100905
2019-05-05T09:19:47.292Z,100908
2019-05-05T09:25:10.918Z,100914
2019-05-05T09:30:33.953Z,100916
2019-05-05T09:35:56.168Z,100913
2019-05-05T09:41:18.879Z,100918
2019-05-05T09:46:41.577Z,100921
2019-05-05T09:52:04.940Z,100915
2019-05-05T09:57:27.030Z,100921
2019-05-05T10:02:49.687Z,100927
2019-05-05T10:08:14.233Z,100944
2019-05-05T10:13:36.407Z,100937
2019-05-05T10:18:59.034Z,100939
2019-05-05T10:24:28.331Z,100935
2019-05-05T10:29:46.392Z,100941
2019-05-05T10:35:09.024Z,100951
2019-05-05T10:40:33.831Z,100958
2019-05-05T10:45:55.980Z,100991
2019-05-05T10:51:19.500Z,100985
2019-05-05T10:56:42.901Z,100988
2019-05-05T11:02:05.557Z,100989
2019-05-05T11:07:28.230Z,100990
2019-05-05T11:12:53.515Z,100990
2019-05-05T11:18:15.078Z,100986
2019-05-05T11:23:37.231Z,100983
2019-05-05T11:29:00.931Z,100987
2019-05-05T11:34:24.628Z,100989
2019-05-05T11:39:46.238Z,100984
2019-05-05T11:45:09.729Z,100979
2019-05-05T11:50:34.180Z,100976
2019-05-05T11:55:55.292Z,100971
2019-05-05T12:01:18.327Z,100967
2019-05-05T12:06:44.030Z,100961
2019-05-05T12:12:04.633Z,100964
2019-05-05T12:17:27.241Z,100960
2019-05-05T12:22:49.881Z,100946
2019-05-05T12:28:13.672Z,100944
2019-05-05T12:33:35.220Z,100944
2019-05-05T12:38:57.863Z,100947
2019-05-05T12:44:23.416Z,100938
2019-05-05T12:49:44.105Z,100933
2019-05-05T12:55:06.758Z,100925
2019-05-05T13:00:29.421Z,100922
2019-05-05T13:05:53.536Z,100934
2019-05-05T13:11:15.369Z,100942
2019-05-05T13:16:38.148Z,100924
2019-05-05T13:22:03.621Z,100955
2019-05-05T13:27:24.960Z,100951
2019-05-05T13:32:47.294Z,100955
2019-05-05T13:38:09.938Z,100958
2019-05-05T13:43:34.201Z,100956
2019-05-05T13:48:55.269Z,100955
2019-05-05T13:54:17.982Z,100951
2019-05-05T13:59:41.623Z,100954
2019-05-05T14:05:04.635Z,100959
2019-05-05T14:10:27.070Z,100965
2019-05-05T14:15:49.704Z,100965
2019-05-05T14:21:14.020Z,100966
2019-05-05T14:26:36.074Z,100970
2019-05-05T14:31:58.712Z,100965
2019-05-05T14:37:21.458Z,100959
2019-05-05T14:42:44.139Z,100956
2019-05-05T14:48:06.818Z,100959
2019-05-05T14:53:29.468Z,100957
2019-05-05T14:58:54.289Z,100954
2019-05-05T15:04:16.821Z,100955
2019-05-05T15:09:39.462Z,100954
2019-05-05T15:15:03.943Z,100959
2019-05-05T15:20:25.834Z,100960
2019-05-05T15:25:48.515Z,100948
2019-05-05T15:31:12.190Z,100972
2019-05-05T15:36:35.802Z,100948
2019-05-05T15:41:59.610Z,100962
2019-05-05T15:47:23.594Z,100972
2019-05-05T15:52:44.870Z,100960
2019-05-05T15:58:07.548Z,100965
2019-05-05T16:03:31.191Z,100966
2019-05-05T16:08:56.449Z,100971
2019-05-05T16:14:16.476Z,100948
2019-05-05T16:19:39.196Z,100981
2019-05-05T16:25:04.238Z,100961
2019-05-05T16:30:25.481Z,100958
2019-05-05T16:35:48.178Z,100954
2019-05-05T16:41:10.849Z,100975
2019-05-05T16:46:34.124Z,100972
2019-05-05T16:51:56.174Z,100947
2019-05-05T16:57:30.623Z,100953
2019-05-05T17:02:44.414Z,100959
2019-05-05T17:08:05.239Z,100966
2019-05-05T17:13:33.477Z,100969
2019-05-05T17:18:54.920Z,100970
2019-05-05T17:24:17.606Z,100976
2019-05-05T17:29:41.237Z,100984
2019-05-05T17:35:03.965Z,100995
2019-05-05T17:40:26.560Z,101002
2019-05-05T17:45:49.213Z,101002
2019-05-05T17:51:13.857Z,101008
2019-05-05T17:56:35.492Z,101000
2019-05-05T18:01:59.054Z,101003
2019-05-05T18:07:23.789Z,101003
2019-05-05T18:12:45.548Z,101002
2019-05-05T18:18:08.202Z,101008
2019-05-05T18:23:33.830Z,101012
2019-05-05T18:28:54.597Z,101012
2019-05-05T18:34:17.248Z,101009
2019-05-05T18:39:41.016Z,101010
2019-05-05T18:45:03.871Z,101007
2019-05-05T18:50:26.561Z,101010
2019-05-05T18:55:49.327Z,101011
2019-05-05T19:01:13.456Z,101019
2019-05-05T19:06:36.785Z,101021
2019-05-05T19:11:59.459Z,101032
2019-05-05T19:17:23.530Z,101037
2019-05-05T19:22:45.742Z,101039
2019-05-05T19:28:08.493Z,101046
2019-05-05T19:33:34.014Z,101051
2019-05-05T19:38:55.107Z,101052
2019-05-05T19:44:17.825Z,101052
2019-05-05T19:49:41.454Z,101053
2019-05-05T19:55:04.450Z,101052
2019-05-05T20:00:26.815Z,101060
2019-05-05T20:05:49.393Z,101055
2019-05-05T20:11:14.086Z,101072
2019-05-05T20:16:34.875Z,101073
2019-05-05T20:21:57.549Z,101073
2019-05-05T20:27:20.224Z,101078
2019-05-05T20:32:42.890Z,101082
2019-05-05T20:38:05.537Z,101087
2019-05-05T20:43:29.099Z,101084
2019-05-05T20:48:51.523Z,101084
2019-05-05T20:54:14.313Z,101089
2019-05-05T20:59:36.805Z,101088
2019-05-05T21:04:59.431Z,101100
2019-05-05T21:10:24.094Z,101103
2019-05-05T21:15:45.179Z,101099
2019-05-05T21:21:07.486Z,101101
2019-05-05T21:26:31.193Z,101102
2019-05-05T21:31:54.789Z,101100
2019-05-05T21:37:16.537Z,101101
2019-05-05T21:42:39.193Z,101103
2019-05-05T21:48:04.208Z,101106
2019-05-05T21:53:26.379Z,101099
2019-05-05T21:58:49.111Z,101093
2019-05-05T22:04:13.079Z,101093
2019-05-05T22:09:34.364Z,101091
2019-05-05T22:14:58.101Z,101087
2019-05-05T22:20:21.741Z,101092
2019-05-05T22:25:44.652Z,101092
2019-05-05T22:31:07.901Z,101093
2019-05-05T22:36:33.826Z,101094
2019-05-05T22:41:55.029Z,101086
2019-05-05T22:47:17.688Z,101089
2019-05-05T22:52:41.334Z,101078
2019-05-05T22:58:04.194Z,101079
2019-05-05T23:03:26.680Z,101081
2019-05-05T23:08:49.446Z,101082
2019-05-05T23:14:14.281Z,101083
2019-05-05T23:19:36.832Z,101080
2019-05-05T23:24:59.523Z,101083
2019-05-05T23:30:23.734Z,101082
2019-05-05T23:35:45.856Z,101077
2019-05-05T23:41:08.502Z,101077
2019-05-05T23:46:32.152Z,101069
2019-05-05T23:51:54.170Z,101058
2019-05-05T23:57:16.989Z,101062
